Time,TemperatureF,DewpointF,PressureIn,WindDirection,WindDirectionDegrees,WindSpeedMPH,WindSpeedGustMPH,Humidity,HourlyPrecipIn,Conditions,Clouds,dailyrainin,SoftwareType,DateUTC
2013-03-06 00:12:00,20.5,17.0,30.39,North,-999,6.0,8.0,86,0.00,,,0.00,weatherlink.com 1.10,2013-03-06 06:12:00,
2013-03-06 00:27:00,20.8,17.0,30.39,North,-999,5.0,6.0,85,0.00,,,0.00,weatherlink.com 1.10,2013-03-06 06:27:00,
2013-03-06 00:42:00,20.8,17.0,30.39,North,-999,5.0,6.0,85,0.00,,,0.00,weatherlink.com 1.10,2013-03-06 06:42:00,
2013-03-06 00:57:00,20.8,17.0,30.40,North,-999,4.0,8.0,85,0.00,,,0.00,weatherlink.com 1.10,2013-03-06 06:57:00,
2013-03-06 01:12:00,20.8,17.0,30.40,North,-999,4.0,5.0,86,0.00,,,0.00,weatherlink.com 1.10,2013-03-06 07:12:00,
2013-03-06 01:27:00,20.9,17.0,30.41,North,-999,9.0,9.0,86,0.00,,,0.00,weatherlink.com 1.10,2013-03-06 07:27:00,
2013-03-06 01:42:00,20.7,17.0,30.42,North,-999,13.0,13.0,87,0.00,,,0.00,weatherlink.com 1.10,2013-03-06 07:42:00,
2013-03-06 01:57:00,20.5,17.0,30.42,North,-999,5.0,13.0,87,0.00,,,0.00,weatherlink.com 1.10,2013-03-06 07:57:00,
2013-03-06 02:12:00,20.3,17.0,30.42,North,-999,5.0,8.0,87,0.00,,,0.00,weatherlink.com 1.10,2013-03-06 08:12:00,
2013-03-06 02:27:00,20.3,17.0,30.42,North,-999,4.0,7.0,86,0.00,,,0.00,weatherlink.com 1.10,2013-03-06 08:27:00,
2013-03-06 02:42:00,20.2,17.0,30.42,North,-999,4.0,5.0,86,0.00,,,0.00,weatherlink.com 1.10,2013-03-06 08:42:00,
2013-03-06 03:13:00,20.1,17.0,30.42,North,-999,0.0,2.0,86,0.00,,,0.00,weatherlink.com 1.10,2013-03-06 09:13:00,
2013-03-06 03:28:00,20.0,17.0,30.43,North,-999,0.0,2.0,87,0.00,,,0.00,weatherlink.com 1.10,2013-03-06 09:28:00,
2013-03-06 03:43:00,20.0,17.0,30.42,North,-999,1.0,4.0,87,0.00,,,0.00,weatherlink.com 1.10,2013-03-06 09:43:00,
2013-03-06 03:58:00,20.0,17.0,30.43,North,-999,3.0,6.0,87,0.00,,,0.00,weatherlink.com 1.10,2013-03-06 09:58:00,
2013-03-06 04:13:00,20.0,17.0,30.43,North,-999,4.0,6.0,87,0.00,,,0.00,weatherlink.com 1.10,2013-03-06 10:13:00,
2013-03-06 04:28:00,20.0,17.0,30.43,North,-999,6.0,6.0,87,0.00,,,0.00,weatherlink.com 1.10,2013-03-06 10:28:00,
2013-03-06 04:43:00,20.1,17.0,30.43,North,-999,7.0,9.0,86,0.00,,,0.00,weatherlink.com 1.10,2013-03-06 10:43:00,
2013-03-06 04:58:00,20.1,16.0,30.43,North,-999,7.0,10.0,85,0.00,,,0.00,weatherlink.com 1.10,2013-03-06 10:58:00,
2013-03-06 05:13:00,20.0,17.0,30.44,North,-999,6.0,7.0,86,0.00,,,0.00,weatherlink.com 1.10,2013-03-06 11:13:00,
2013-03-06 05:28:00,20.0,16.0,30.45,North,-999,3.0,7.0,85,0.00,,,0.00,weatherlink.com 1.10,2013-03-06 11:28:00,
2013-03-06 05:43:00,20.0,16.0,30.46,North,-999,4.0,6.0,85,0.00,,,0.00,weatherlink.com 1.10,2013-03-06 11:43:00,
2013-03-06 05:58:00,20.1,16.0,30.46,North,-999,5.0,8.0,85,0.00,,,0.00,weatherlink.com 1.10,2013-03-06 11:58:00,
2013-03-06 06:13:00,20.0,16.0,30.46,North,-999,7.0,8.0,85,0.00,,,0.00,weatherlink.com 1.10,2013-03-06 12:13:00,
2013-03-06 06:28:00,19.8,16.0,30.46,North,-999,4.0,7.0,84,0.00,,,0.00,weatherlink.com 1.10,2013-03-06 12:28:00,
2013-03-06 06:43:00,19.7,16.0,30.47,North,-999,4.0,6.0,85,0.00,,,0.00,weatherlink.com 1.10,2013-03-06 12:43:00,
2013-03-06 06:58:00,19.6,16.0,30.47,North,-999,2.0,5.0,85,0.00,,,0.00,weatherlink.com 1.10,2013-03-06 12:58:00,
2013-03-06 07:13:00,19.7,16.0,30.48,North,-999,4.0,7.0,85,0.00,,,0.00,weatherlink.com 1.10,2013-03-06 13:13:00,
2013-03-06 07:28:00,20.0,16.0,30.48,North,-999,1.0,4.0,84,0.00,,,0.00,weatherlink.com 1.10,2013-03-06 13:28:00,
2013-03-06 07:43:00,20.2,16.0,30.48,North,-999,3.0,4.0,84,0.00,,,0.00,weatherlink.com 1.10,2013-03-06 13:43:00,
2013-03-06 07:58:00,20.5,16.0,30.48,North,-999,4.0,7.0,83,0.00,,,0.00,weatherlink.com 1.10,2013-03-06 13:58:00,
2013-03-06 08:13:00,21.1,17.0,30.48,North,-999,1.0,3.0,83,0.00,,,0.00,weatherlink.com 1.10,2013-03-06 14:13:00,
2013-03-06 08:28:00,21.7,17.0,30.48,North,-999,2.0,6.0,81,0.00,,,0.00,weatherlink.com 1.10,2013-03-06 14:28:00,
2013-03-06 08:43:00,22.1,17.0,30.48,North,-999,2.0,4.0,80,0.00,,,0.00,weatherlink.com 1.10,2013-03-06 14:43:00,
2013-03-06 08:58:00,22.2,17.0,30.48,North,-999,5.0,7.0,79,0.00,,,0.00,weatherlink.com 1.10,2013-03-06 14:58:00,
2013-03-06 09:13:00,21.6,16.0,30.48,North,-999,9.0,12.0,80,0.00,,,0.00,weatherlink.com 1.10,2013-03-06 15:13:00,
2013-03-06 09:28:00,21.4,16.0,30.48,North,-999,4.0,12.0,80,0.00,,,0.00,weatherlink.com 1.10,2013-03-06 15:28:00,
2013-03-06 09:43:00,22.0,17.0,30.48,North,-999,9.0,9.0,80,0.00,,,0.00,weatherlink.com 1.10,2013-03-06 15:43:00,
2013-03-06 09:58:00,21.5,16.0,30.48,North,-999,8.0,11.0,80,0.00,,,0.00,weatherlink.com 1.10,2013-03-06 15:58:00,
2013-03-06 10:13:00,22.3,17.0,30.48,North,-999,3.0,10.0,79,0.00,,,0.00,weatherlink.com 1.10,2013-03-06 16:13:00,
2013-03-06 10:28:00,23.2,17.0,30.48,North,-999,3.0,5.0,77,0.00,,,0.00,weatherlink.com 1.10,2013-03-06 16:28:00,
2013-03-06 10:43:00,23.5,17.0,30.48,North,-999,3.0,5.0,76,0.00,,,0.00,weatherlink.com 1.10,2013-03-06 16:43:00,
2013-03-06 10:58:00,23.5,17.0,30.48,North,-999,4.0,7.0,75,0.00,,,0.00,weatherlink.com 1.10,2013-03-06 16:58:00,
2013-03-06 11:13:00,22.5,17.0,30.48,North,-999,2.0,8.0,78,0.00,,,0.00,weatherlink.com 1.10,2013-03-06 17:13:00,
2013-03-06 11:28:00,22.5,16.0,30.48,North,-999,5.0,9.0,77,0.00,,,0.00,weatherlink.com 1.10,2013-03-06 17:28:00,
2013-03-06 11:43:00,21.9,16.0,30.47,North,-999,8.0,10.0,78,0.00,,,0.00,weatherlink.com 1.10,2013-03-06 17:43:00,
2013-03-06 11:58:00,22.1,16.0,30.47,North,-999,1.0,7.0,78,0.00,,,0.00,weatherlink.com 1.10,2013-03-06 17:58:00,
2013-03-06 12:13:00,22.9,16.0,30.47,North,-999,4.0,6.0,76,0.00,,,0.00,weatherlink.com 1.10,2013-03-06 18:13:00,
2013-03-06 12:43:00,24.4,17.0,30.46,North,-999,2.0,5.0,73,0.00,,,0.00,weatherlink.com 1.10,2013-03-06 18:43:00,
2013-03-06 12:58:00,24.2,17.0,30.46,North,-999,4.0,6.0,73,0.00,,,0.00,weatherlink.com 1.10,2013-03-06 18:58:00,
2013-03-06 13:13:00,23.2,17.0,30.45,North,-999,4.0,6.0,76,0.00,,,0.00,weatherlink.com 1.10,2013-03-06 19:13:00,
2013-03-06 13:43:00,22.8,16.0,30.44,North,-999,3.0,6.0,76,0.00,,,0.00,weatherlink.com 1.10,2013-03-06 19:43:00,
2013-03-06 13:58:00,22.9,17.0,30.44,North,-999,1.0,8.0,78,0.00,,,0.00,weatherlink.com 1.10,2013-03-06 19:58:00,
2013-03-06 14:13:00,23.2,17.0,30.44,North,-999,2.0,7.0,77,0.00,,,0.00,weatherlink.com 1.10,2013-03-06 20:13:00,
2013-03-06 14:28:00,22.7,17.0,30.43,North,-999,3.0,5.0,77,0.00,,,0.00,weatherlink.com 1.10,2013-03-06 20:28:00,
2013-03-06 14:43:00,23.6,17.0,30.43,North,-999,2.0,7.0,76,0.00,,,0.00,weatherlink.com 1.10,2013-03-06 20:43:00,
2013-03-06 14:58:00,22.5,16.0,30.43,North,-999,4.0,8.0,77,0.00,,,0.00,weatherlink.com 1.10,2013-03-06 20:58:00,
2013-03-06 15:14:00,22.6,17.0,30.43,North,-999,1.0,7.0,78,0.00,,,0.00,weatherlink.com 1.10,2013-03-06 21:14:00,
2013-03-06 15:29:00,23.0,17.0,30.43,North,-999,2.0,3.0,76,0.00,,,0.00,weatherlink.com 1.10,2013-03-06 21:29:00,
2013-03-06 15:44:00,24.2,17.0,30.43,North,-999,1.0,2.0,73,0.00,,,0.00,weatherlink.com 1.10,2013-03-06 21:44:00,
2013-03-06 15:59:00,23.2,16.0,30.43,North,-999,2.0,5.0,74,0.00,,,0.00,weatherlink.com 1.10,2013-03-06 21:59:00,
2013-03-06 16:14:00,23.6,16.0,30.43,North,-999,1.0,5.0,73,0.00,,,0.00,weatherlink.com 1.10,2013-03-06 22:14:00,
2013-03-06 16:29:00,23.8,17.0,30.43,North,-999,1.0,2.0,74,0.00,,,0.00,weatherlink.com 1.10,2013-03-06 22:29:00,
2013-03-06 16:44:00,22.9,16.0,30.43,North,-999,6.0,6.0,74,0.00,,,0.00,weatherlink.com 1.10,2013-03-06 22:44:00,
2013-03-06 16:59:00,22.3,16.0,30.43,North,-999,1.0,5.0,75,0.00,,,0.00,weatherlink.com 1.10,2013-03-06 22:59:00,
2013-03-06 17:14:00,22.4,16.0,30.42,North,-999,1.0,3.0,76,0.00,,,0.00,weatherlink.com 1.10,2013-03-06 23:14:00,
2013-03-06 17:29:00,22.2,16.0,30.42,North,-999,1.0,5.0,76,0.00,,,0.00,weatherlink.com 1.10,2013-03-06 23:29:00,
2013-03-06 17:44:00,21.7,15.0,30.43,North,-999,2.0,3.0,76,0.00,,,0.00,weatherlink.com 1.10,2013-03-06 23:44:00,
2013-03-06 18:14:00,20.5,15.0,30.42,North,-999,0.0,1.0,78,0.00,,,0.00,weatherlink.com 1.10,2013-03-07 00:14:00,
2013-03-06 18:29:00,19.9,14.0,30.42,North,-999,1.0,2.0,79,0.00,,,0.00,weatherlink.com 1.10,2013-03-07 00:29:00,
2013-03-06 18:44:00,19.8,15.0,30.42,North,-999,1.0,2.0,80,0.00,,,0.00,weatherlink.com 1.10,2013-03-07 00:44:00,
2013-03-06 18:59:00,19.0,14.0,30.42,North,-999,1.0,1.0,80,0.00,,,0.00,weatherlink.com 1.10,2013-03-07 00:59:00,
2013-03-06 19:14:00,18.8,14.0,30.42,North,-999,1.0,1.0,82,0.00,,,0.00,weatherlink.com 1.10,2013-03-07 01:14:00,
2013-03-06 19:29:00,18.3,14.0,30.42,North,-999,1.0,1.0,82,0.00,,,0.00,weatherlink.com 1.10,2013-03-07 01:29:00,
2013-03-06 19:44:00,18.1,14.0,30.42,North,-999,0.0,1.0,82,0.00,,,0.00,weatherlink.com 1.10,2013-03-07 01:44:00,
2013-03-06 19:59:00,17.5,14.0,30.42,North,-999,0.0,0.0,84,0.00,,,0.00,weatherlink.com 1.10,2013-03-07 01:59:00,
2013-03-06 20:14:00,17.2,14.0,30.42,North,-999,0.0,0.0,85,0.00,,,0.00,weatherlink.com 1.10,2013-03-07 02:14:00,
2013-03-06 20:29:00,16.4,13.0,30.41,North,-999,0.0,0.0,87,0.00,,,0.00,weatherlink.com 1.10,2013-03-07 02:29:00,
2013-03-06 20:44:00,15.5,12.0,30.41,North,-999,0.0,0.0,87,0.00,,,0.00,weatherlink.com 1.10,2013-03-07 02:44:00,
2013-03-06 20:59:00,14.7,12.0,30.41,North,-999,0.0,1.0,89,0.00,,,0.00,weatherlink.com 1.10,2013-03-07 02:59:00,
2013-03-06 21:14:00,15.1,13.0,30.42,North,-999,0.0,0.0,91,0.00,,,0.00,weatherlink.com 1.10,2013-03-07 03:14:00,
2013-03-06 21:29:00,14.7,12.0,30.42,North,-999,0.0,0.0,90,0.00,,,0.00,weatherlink.com 1.10,2013-03-07 03:29:00,
2013-03-06 21:44:00,14.7,13.0,30.42,North,-999,2.0,2.0,91,0.00,,,0.00,weatherlink.com 1.10,2013-03-07 03:44:00,
2013-03-06 22:00:00,14.5,13.0,30.42,North,-999,1.0,1.0,92,0.00,,,0.00,weatherlink.com 1.10,2013-03-07 04:00:00,
2013-03-06 22:14:00,13.2,11.0,30.42,North,-999,2.0,2.0,91,0.00,,,0.00,weatherlink.com 1.10,2013-03-07 04:14:00,
2013-03-06 22:29:00,10.9,9.0,30.42,North,-999,2.0,3.0,91,0.00,,,0.00,weatherlink.com 1.10,2013-03-07 04:29:00,
2013-03-06 22:44:00,11.8,10.0,30.43,North,-999,0.0,3.0,91,0.00,,,0.00,weatherlink.com 1.10,2013-03-07 04:44:00,
2013-03-06 22:59:00,11.9,10.0,30.43,North,-999,0.0,1.0,92,0.00,,,0.00,weatherlink.com 1.10,2013-03-07 04:59:00,
2013-03-06 23:14:00,11.6,9.0,30.43,North,-999,2.0,2.0,88,0.00,,,0.00,weatherlink.com 1.10,2013-03-07 05:14:00,
2013-03-06 23:29:00,12.0,11.0,30.43,North,-999,0.0,2.0,94,0.00,,,0.00,weatherlink.com 1.10,2013-03-07 05:29:00,
2013-03-06 23:44:00,12.3,10.0,30.43,North,-999,0.0,1.0,91,0.00,,,0.00,weatherlink.com 1.10,2013-03-07 05:44:00,
2013-03-06 23:59:00,12.0,10.0,30.43,North,-999,0.0,1.0,91,0.00,,,0.00,weatherlink.com 1.10,2013-03-07 05:59:00,